createdAt,value
2019-02-26T00:01:06.795Z,101018.00
2019-02-26T00:03:35.552Z,101024.00
2019-02-26T00:06:03.821Z,101019.00
2019-02-26T00:08:33.511Z,101017.00
2019-02-26T00:11:03.754Z,101028.00
2019-02-26T00:13:34.618Z,101019.00
2019-02-26T00:16:05.666Z,101022.00
2019-02-26T00:18:33.065Z,101027.00
2019-02-26T00:21:02.872Z,101035.00
2019-02-26T00:23:31.424Z,101041.00
2019-02-26T00:25:59.629Z,101042.00
2019-02-26T00:28:28.029Z,101029.00
2019-02-26T00:30:57.272Z,101024.00
2019-02-26T00:33:27.296Z,101008.00
2019-02-26T00:35:55.761Z,100993.00
2019-02-26T00:38:23.946Z,100995.00
2019-02-26T00:40:52.163Z,100983.00
2019-02-26T00:43:23.271Z,100984.00
2019-02-26T00:45:51.040Z,100985.00
2019-02-26T00:48:20.860Z,100969.00
2019-02-26T00:50:49.081Z,100970.00
2019-02-26T00:53:21.226Z,100968.00
2019-02-26T00:55:47.441Z,100973.00
2019-02-26T00:58:15.671Z,100981.00
2019-02-26T01:00:43.855Z,100968.00
2019-02-26T01:03:13.702Z,100963.00
2019-02-26T01:05:43.149Z,100958.00
2019-02-26T01:08:13.312Z,100968.00
2019-02-26T01:10:43.747Z,100934.00
2019-02-26T01:13:12.448Z,100926.00
2019-02-26T01:15:40.626Z,100922.00
2019-02-26T01:18:08.899Z,100930.00
2019-02-26T01:20:37.148Z,100928.00
2019-02-26T01:23:05.327Z,100922.00
2019-02-26T01:25:33.627Z,100906.00
2019-02-26T01:28:01.807Z,100879.00
2019-02-26T01:30:31.902Z,100879.00
2019-02-26T01:33:02.510Z,100869.00
2019-02-26T01:35:31.222Z,100873.00
2019-02-26T01:38:00.536Z,100866.00
2019-02-26T01:40:29.113Z,100875.00
2019-02-26T01:42:57.881Z,100871.00
2019-02-26T01:45:27.212Z,100870.00
2019-02-26T01:47:56.248Z,100858.00
2019-02-26T01:50:24.476Z,100876.00
2019-02-26T01:52:54.470Z,100884.00
2019-02-26T01:55:25.003Z,100888.00
2019-02-26T01:57:53.002Z,100904.00
2019-02-26T02:00:21.219Z,100895.00
2019-02-26T02:02:49.468Z,100885.00
2019-02-26T02:05:19.686Z,100883.00
2019-02-26T02:07:49.604Z,100900.00
2019-02-26T02:10:17.912Z,100883.00
2019-02-26T02:12:46.230Z,100882.00
2019-02-26T02:15:17.414Z,100867.00
2019-02-26T02:17:44.729Z,100886.00
2019-02-26T02:20:15.689Z,100880.00
2019-02-26T02:22:44.442Z,100881.00
2019-02-26T02:25:12.765Z,100883.00
2019-02-26T02:27:40.961Z,100881.00
2019-02-26T02:30:18.537Z,100870.00
2019-02-26T02:32:43.053Z,100858.00
2019-02-26T02:35:12.596Z,100869.00
2019-02-26T02:37:41.341Z,100874.00
2019-02-26T02:40:09.879Z,100868.00
2019-02-26T02:42:40.226Z,100860.00
2019-02-26T02:45:11.346Z,100867.00
2019-02-26T02:47:39.492Z,100873.00
2019-02-26T02:50:12.048Z,100867.00
2019-02-26T02:52:40.032Z,100864.00
2019-02-26T02:55:10.571Z,100862.00
2019-02-26T02:57:38.431Z,100864.00
2019-02-26T03:00:08.970Z,100875.00
2019-02-26T03:02:40.476Z,100863.00
2019-02-26T03:05:08.236Z,100867.00
2019-02-26T03:07:36.472Z,100864.00
2019-02-26T03:10:06.776Z,100870.00
2019-02-26T03:12:35.759Z,100871.00
2019-02-26T03:15:07.216Z,100868.00
2019-02-26T03:17:37.883Z,100869.00
2019-02-26T03:20:07.710Z,100866.00
2019-02-26T03:22:39.029Z,100875.00
2019-02-26T03:25:08.902Z,100859.00
2019-02-26T03:27:39.929Z,100846.00
2019-02-26T03:30:11.207Z,100846.00
2019-02-26T03:32:41.223Z,100853.00
2019-02-26T03:35:10.175Z,100852.00
2019-02-26T03:37:39.030Z,100858.00
2019-02-26T03:40:08.811Z,100844.00
2019-02-26T03:42:40.430Z,100837.00
2019-02-26T03:45:09.852Z,100844.00
2019-02-26T03:47:40.249Z,100861.00
2019-02-26T03:50:11.196Z,100856.00
2019-02-26T03:52:39.371Z,100858.00
2019-02-26T03:55:09.488Z,100869.00
2019-02-26T03:57:41.105Z,100852.00
2019-02-26T04:00:09.250Z,100861.00
2019-02-26T04:02:39.908Z,100857.00
2019-02-26T04:05:09.482Z,100850.00
2019-02-26T04:07:37.763Z,100839.00
2019-02-26T04:10:06.129Z,100857.00
2019-02-26T04:12:39.240Z,100858.00
2019-02-26T04:15:06.249Z,100859.00
2019-02-26T04:17:36.863Z,100851.00
2019-02-26T04:20:06.300Z,100844.00
2019-02-26T04:22:35.723Z,100837.00
2019-02-26T04:26:05.615Z,100844.00
2019-02-26T04:28:48.489Z,100835.00
2019-02-26T04:32:15.119Z,100831.00
2019-02-26T04:35:27.371Z,100827.00
2019-02-26T04:38:40.834Z,100822.00
2019-02-26T04:42:09.443Z,100813.00
2019-02-26T04:45:26.243Z,100815.00
2019-02-26T04:47:57.404Z,100822.00
2019-02-26T04:50:28.706Z,100822.00
2019-02-26T04:52:56.260Z,100806.00
2019-02-26T04:55:27.178Z,100814.00
2019-02-26T04:57:55.261Z,100820.00
2019-02-26T05:00:26.170Z,100830.00
2019-02-26T05:02:53.602Z,100813.00
2019-02-26T05:05:22.379Z,100818.00
2019-02-26T05:07:50.716Z,100828.00
2019-02-26T05:10:20.488Z,100820.00
2019-02-26T05:12:48.996Z,100818.00
2019-02-26T05:15:20.304Z,100812.00
2019-02-26T05:17:47.368Z,100810.00
2019-02-26T05:20:18.293Z,100813.00
2019-02-26T05:22:45.769Z,100809.00
2019-02-26T05:25:16.887Z,100815.00
2019-02-26T05:27:46.049Z,100804.00
2019-02-26T05:30:17.246Z,100809.00
2019-02-26T05:32:44.353Z,100806.00
2019-02-26T05:35:14.469Z,100820.00
2019-02-26T05:37:42.694Z,100823.00
2019-02-26T05:40:14.972Z,100818.00
2019-02-26T05:42:40.950Z,100825.00
2019-02-26T05:45:09.538Z,100829.00
2019-02-26T05:47:38.116Z,100807.00
2019-02-26T05:50:09.406Z,100804.00
2019-02-26T05:52:36.846Z,100820.00
2019-02-26T05:55:05.312Z,100823.00
2019-02-26T05:57:33.780Z,100812.00
2019-02-26T06:00:02.623Z,100811.00
2019-02-26T06:02:30.915Z,100833.00
2019-02-26T06:04:59.302Z,100822.00
2019-02-26T06:07:30.357Z,100798.00
2019-02-26T06:09:59.219Z,100793.00
2019-02-26T06:12:27.828Z,100803.00
2019-02-26T06:15:00.747Z,100797.00
2019-02-26T06:17:27.558Z,100784.00
2019-02-26T06:20:05.623Z,100799.00
2019-02-26T06:22:34.699Z,100792.00
2019-02-26T06:25:07.907Z,100787.00
2019-02-26T06:27:33.091Z,100807.00
2019-02-26T06:30:05.863Z,100809.00
2019-02-26T06:32:34.741Z,100807.00
2019-02-26T06:35:06.154Z,100810.00
2019-02-26T06:37:35.411Z,100812.00
2019-02-26T06:40:05.675Z,100816.00
2019-02-26T06:42:35.604Z,100813.00
2019-02-26T06:45:06.478Z,100811.00
2019-02-26T06:47:34.453Z,100809.00
2019-02-26T06:50:03.064Z,100812.00
2019-02-26T06:52:35.164Z,100821.00
2019-02-26T06:55:03.566Z,100822.00
2019-02-26T06:57:31.927Z,100834.00
2019-02-26T07:00:01.346Z,100832.00
2019-02-26T07:02:30.217Z,100826.00
2019-02-26T07:04:58.408Z,100828.00
2019-02-26T07:07:26.601Z,100816.00
2019-02-26T07:09:57.484Z,100819.00
2019-02-26T07:12:26.495Z,100818.00
2019-02-26T07:14:55.565Z,100831.00
2019-02-26T07:17:26.857Z,100827.00
2019-02-26T07:19:55.909Z,100836.00
2019-02-26T07:22:24.865Z,100857.00
2019-02-26T07:24:53.984Z,100843.00
2019-02-26T07:27:22.408Z,100846.00
2019-02-26T07:29:52.376Z,100832.00
2019-02-26T07:32:22.118Z,100836.00
2019-02-26T07:34:52.138Z,100851.00
2019-02-26T07:37:20.636Z,100866.00
2019-02-26T07:39:49.730Z,100844.00
2019-02-26T07:42:19.067Z,100850.00
2019-02-26T07:44:47.288Z,100852.00
2019-02-26T07:47:15.535Z,100861.00
2019-02-26T07:49:43.763Z,100882.00
2019-02-26T07:52:12.020Z,100890.00
2019-02-26T07:54:42.227Z,100892.00
2019-02-26T07:57:10.446Z,100896.00
2019-02-26T07:59:39.881Z,100903.00
2019-02-26T08:02:11.237Z,100924.00
2019-02-26T08:04:41.245Z,100921.00
2019-02-26T08:07:09.346Z,100912.00
2019-02-26T08:09:37.674Z,100920.00
2019-02-26T08:12:08.422Z,100943.00
2019-02-26T08:14:37.858Z,100943.00
2019-02-26T08:17:06.385Z,100940.00
2019-02-26T08:19:39.855Z,100929.00
2019-02-26T08:22:08.092Z,100947.00
2019-02-26T08:24:36.425Z,100949.00
2019-02-26T08:27:06.054Z,100949.00
2019-02-26T08:29:36.223Z,100938.00
2019-02-26T08:32:04.593Z,100940.00
2019-02-26T08:34:32.832Z,100948.00
2019-02-26T08:37:01.508Z,100955.00
2019-02-26T08:39:29.739Z,100965.00
2019-02-26T08:42:08.781Z,100974.00
2019-02-26T08:44:36.999Z,100960.00
2019-02-26T08:47:08.738Z,100963.00
2019-02-26T08:49:37.833Z,100948.00
2019-02-26T08:52:05.482Z,100946.00
2019-02-26T08:54:35.668Z,100968.00
2019-02-26T08:57:03.789Z,100972.00
2019-02-26T08:59:31.981Z,100962.00
2019-02-26T09:02:00.250Z,100962.00
2019-02-26T09:04:28.446Z,100979.00
2019-02-26T09:06:57.571Z,100985.00
2019-02-26T09:09:27.787Z,100984.00
2019-02-26T09:11:58.858Z,100993.00
2019-02-26T09:14:26.506Z,100990.00
2019-02-26T09:16:56.862Z,100996.00
2019-02-26T09:19:27.302Z,100998.00
2019-02-26T09:21:54.978Z,101002.00
2019-02-26T09:24:23.224Z,100998.00
2019-02-26T09:26:52.194Z,101001.00
2019-02-26T09:29:22.249Z,101004.00
2019-02-26T09:31:50.452Z,101005.00
2019-02-26T09:34:21.415Z,101004.00
2019-02-26T09:36:52.774Z,101009.00
2019-02-26T09:39:19.799Z,101012.00
2019-02-26T09:41:47.975Z,101009.00
2019-02-26T09:44:16.192Z,101019.00
2019-02-26T09:46:44.405Z,101027.00
2019-02-26T09:49:12.778Z,101027.00
2019-02-26T09:51:41.017Z,101015.00
2019-02-26T09:54:10.927Z,101000.00
2019-02-26T09:56:39.371Z,101020.00
2019-02-26T09:59:09.661Z,101024.00
2019-02-26T10:01:40.214Z,101026.00
2019-02-26T10:04:08.232Z,101024.00
2019-02-26T10:06:37.898Z,101027.00
2019-02-26T10:09:08.969Z,101039.00
2019-02-26T10:11:39.182Z,101036.00
2019-02-26T10:14:07.931Z,101031.00
2019-02-26T10:16:36.786Z,101028.00
2019-02-26T10:19:05.033Z,101022.00
2019-02-26T10:21:34.845Z,101029.00
2019-02-26T10:24:04.615Z,101028.00
2019-02-26T10:26:33.999Z,101027.00
2019-02-26T10:29:04.570Z,101029.00
2019-02-26T10:31:33.281Z,101030.00
2019-02-26T10:34:03.013Z,101023.00
2019-02-26T10:36:34.721Z,101034.00
2019-02-26T10:39:02.813Z,101035.00
2019-02-26T10:41:31.346Z,101031.00
2019-02-26T10:43:59.905Z,101028.00
2019-02-26T10:46:29.421Z,101041.00
2019-02-26T10:48:58.124Z,101032.00
2019-02-26T10:51:27.193Z,101031.00
2019-02-26T10:53:57.498Z,101033.00
2019-02-26T10:56:28.073Z,101045.00
2019-02-26T10:59:01.981Z,101043.00
2019-02-26T11:01:28.743Z,101028.00
2019-02-26T11:03:56.960Z,101036.00
2019-02-26T11:06:25.168Z,101035.00
2019-02-26T11:08:55.602Z,101035.00
2019-02-26T11:11:23.517Z,101023.00
2019-02-26T11:13:53.758Z,101037.00
2019-02-26T11:16:25.242Z,101046.00
2019-02-26T11:18:52.009Z,101037.00
2019-02-26T11:21:20.145Z,101039.00
2019-02-26T11:23:48.431Z,101038.00
2019-02-26T11:26:18.752Z,101028.00
2019-02-26T11:28:48.026Z,101025.00
2019-02-26T11:31:19.751Z,101022.00
2019-02-26T11:33:48.183Z,101030.00
2019-02-26T11:36:16.502Z,101028.00
2019-02-26T11:38:46.939Z,101020.00
2019-02-26T11:41:15.027Z,101023.00
2019-02-26T11:43:43.302Z,101017.00
2019-02-26T11:46:11.508Z,101001.00
2019-02-26T11:48:39.720Z,101000.00
2019-02-26T11:51:08.157Z,101012.00
2019-02-26T11:53:36.472Z,101004.00
2019-02-26T11:56:04.647Z,101002.00
2019-02-26T11:58:32.852Z,100999.00
2019-02-26T12:01:04.022Z,100997.00
2019-02-26T12:03:34.168Z,100995.00
2019-02-26T12:06:02.402Z,100984.00
2019-02-26T12:08:30.634Z,100989.00
2019-02-26T12:11:03.622Z,101000.00
2019-02-26T12:13:29.608Z,100997.00
2019-02-26T12:15:57.850Z,101018.00
2019-02-26T12:18:26.105Z,100986.00
2019-02-26T12:20:54.335Z,101007.00
2019-02-26T12:23:22.847Z,101006.00
2019-02-26T12:25:53.638Z,101003.00
2019-02-26T12:28:21.446Z,100999.00
2019-02-26T12:30:49.656Z,101003.00
2019-02-26T12:33:17.872Z,100987.00
2019-02-26T12:35:46.138Z,100984.00
2019-02-26T12:38:20.691Z,100989.00
2019-02-26T12:40:47.051Z,100988.00
2019-02-26T12:43:17.762Z,100994.00
2019-02-26T12:45:44.715Z,100994.00
2019-02-26T12:48:15.684Z,100989.00
2019-02-26T12:50:43.067Z,100975.00
2019-02-26T12:53:12.681Z,100978.00
2019-02-26T12:55:42.658Z,100981.00
2019-02-26T12:58:14.429Z,100978.00
2019-02-26T13:00:42.237Z,100979.00
2019-02-26T13:03:12.780Z,100978.00
2019-02-26T13:05:42.561Z,100963.00
2019-02-26T13:08:13.474Z,100968.00
2019-02-26T13:10:42.444Z,100970.00
2019-02-26T13:13:12.125Z,100966.00
2019-02-26T13:15:40.374Z,100973.00
2019-02-26T13:18:08.665Z,100953.00
2019-02-26T13:20:36.963Z,100974.00
2019-02-26T13:23:17.042Z,100973.00
2019-02-26T13:25:35.443Z,100969.00
2019-02-26T13:28:04.242Z,100979.00
2019-02-26T13:30:32.421Z,100981.00
2019-02-26T13:33:05.594Z,100978.00
2019-02-26T13:35:32.034Z,100969.00
2019-02-26T13:38:00.390Z,100974.00
2019-02-26T13:40:28.601Z,100978.00
2019-02-26T13:45:27.005Z,100971.00
2019-02-26T13:48:00.971Z,100973.00
2019-02-26T13:50:27.103Z,100956.00
2019-02-26T13:52:55.385Z,100965.00
2019-02-26T13:55:23.746Z,100955.00
2019-02-26T13:57:51.977Z,100946.00
2019-02-26T14:00:26.457Z,100952.00
2019-02-26T14:02:50.414Z,100961.00
2019-02-26T14:05:21.106Z,100966.00
2019-02-26T14:07:49.706Z,100960.00
2019-02-26T14:10:19.877Z,100952.00
2019-02-26T14:12:49.942Z,100960.00
2019-02-26T14:15:22.329Z,100955.00
2019-02-26T14:17:52.605Z,100974.00
2019-02-26T14:20:22.984Z,100966.00
2019-02-26T14:22:51.947Z,100981.00
2019-02-26T14:25:20.173Z,100970.00
2019-02-26T14:27:48.424Z,100983.00
2019-02-26T14:30:16.736Z,100973.00
2019-02-26T14:32:45.352Z,100959.00
2019-02-26T14:35:15.195Z,100969.00
2019-02-26T14:37:43.582Z,100965.00
2019-02-26T14:40:12.062Z,100985.00
2019-02-26T14:42:40.262Z,100975.00
2019-02-26T14:45:12.125Z,100962.00
2019-02-26T14:47:40.362Z,100972.00
2019-02-26T14:50:12.030Z,100963.00
2019-02-26T14:52:40.310Z,100982.00
2019-02-26T14:55:09.702Z,100966.00
2019-02-26T14:57:37.963Z,100959.00
2019-02-26T15:00:11.700Z,100970.00
2019-02-26T15:02:39.930Z,100967.00
2019-02-26T15:05:08.279Z,100951.00
2019-02-26T15:07:36.575Z,100975.00
2019-02-26T15:10:05.372Z,100985.00
2019-02-26T15:12:33.622Z,100967.00
2019-02-26T15:15:01.791Z,100968.00
2019-02-26T15:17:30.037Z,100979.00
2019-02-26T15:19:58.192Z,100978.00
2019-02-26T15:22:26.442Z,100988.00
2019-02-26T15:24:54.617Z,100987.00
2019-02-26T15:27:22.892Z,100993.00
2019-02-26T15:29:51.154Z,100999.00
2019-02-26T15:32:21.161Z,101003.00
2019-02-26T15:34:49.393Z,100995.00
2019-02-26T15:37:17.730Z,100996.00
2019-02-26T15:39:46.086Z,100996.00
2019-02-26T15:42:14.306Z,100986.00
2019-02-26T15:44:42.901Z,100997.00
2019-02-26T15:47:11.109Z,101004.00
2019-02-26T15:49:39.406Z,101001.00
2019-02-26T15:52:07.790Z,101005.00
2019-02-26T15:54:36.133Z,101010.00
2019-02-26T15:57:04.449Z,101011.00
2019-02-26T15:59:35.277Z,101012.00
2019-02-26T16:02:02.808Z,101012.00
2019-02-26T16:04:31.012Z,101010.00
2019-02-26T16:06:59.460Z,101011.00
2019-02-26T16:09:27.643Z,100999.00
2019-02-26T16:11:55.893Z,101000.00
2019-02-26T16:14:24.132Z,101016.00
2019-02-26T16:16:52.470Z,101013.00
2019-02-26T16:19:20.981Z,101019.00
2019-02-26T16:21:49.228Z,101026.00
2019-02-26T16:24:17.470Z,101039.00
2019-02-26T16:26:45.698Z,101032.00
2019-02-26T16:29:13.986Z,101041.00
2019-02-26T16:31:42.151Z,101050.00
2019-02-26T16:34:11.437Z,101049.00
2019-02-26T16:36:39.886Z,101039.00
2019-02-26T16:39:08.349Z,101058.00
2019-02-26T16:41:38.399Z,101056.00
2019-02-26T16:44:06.807Z,101056.00
2019-02-26T16:46:35.117Z,101054.00
2019-02-26T16:49:03.710Z,101065.00
2019-02-26T16:51:31.929Z,101060.00
2019-02-26T16:54:00.710Z,101066.00
2019-02-26T16:56:29.033Z,101064.00
2019-02-26T16:58:57.411Z,101080.00
2019-02-26T17:01:25.664Z,101086.00
2019-02-26T17:03:54.063Z,101085.00
2019-02-26T17:06:22.489Z,101086.00
2019-02-26T17:08:50.743Z,101093.00
2019-02-26T17:11:19.113Z,101086.00
2019-02-26T17:13:47.381Z,101082.00
2019-02-26T17:16:15.581Z,101094.00
2019-02-26T17:18:43.757Z,101094.00
2019-02-26T17:21:11.972Z,101096.00
2019-02-26T17:23:40.353Z,101099.00
2019-02-26T17:26:08.657Z,101093.00
2019-02-26T17:28:36.965Z,101099.00
2019-02-26T17:31:05.107Z,101104.00
2019-02-26T17:33:33.408Z,101106.00
2019-02-26T17:36:03.016Z,101116.00
2019-02-26T17:38:31.216Z,101109.00
2019-02-26T17:40:59.448Z,101109.00
2019-02-26T17:43:27.752Z,101121.00
2019-02-26T17:45:55.914Z,101121.00
2019-02-26T17:48:24.175Z,101121.00
2019-02-26T17:50:52.651Z,101128.00
2019-02-26T17:53:20.991Z,101126.00
2019-02-26T17:55:51.747Z,101136.00
2019-02-26T17:58:20.094Z,101126.00
2019-02-26T18:00:53.104Z,101131.00
2019-02-26T18:03:21.307Z,101135.00
2019-02-26T18:05:51.501Z,101135.00
2019-02-26T18:08:19.727Z,101135.00
2019-02-26T18:10:48.001Z,101145.00
2019-02-26T18:13:16.163Z,101150.00
2019-02-26T18:15:44.457Z,101153.00
2019-02-26T18:18:12.636Z,101156.00
2019-02-26T18:20:40.885Z,101153.00
2019-02-26T18:23:09.086Z,101153.00
2019-02-26T18:25:37.402Z,101148.00
2019-02-26T18:28:08.616Z,101144.00
2019-02-26T18:30:35.885Z,101138.00
2019-02-26T18:33:04.659Z,101141.00
2019-02-26T18:35:33.129Z,101135.00
2019-02-26T18:38:02.486Z,101128.00
2019-02-26T18:40:30.703Z,101122.00
2019-02-26T18:42:58.976Z,101114.00
2019-02-26T18:45:28.726Z,101119.00
2019-02-26T18:47:57.280Z,101126.00
2019-02-26T18:50:27.841Z,101135.00
2019-02-26T18:52:57.950Z,101129.00
2019-02-26T18:55:28.830Z,101123.00
2019-02-26T18:57:56.118Z,101132.00
2019-02-26T19:00:25.845Z,101136.00
2019-02-26T19:02:54.568Z,101128.00
2019-02-26T19:05:23.736Z,101132.00
2019-02-26T19:07:52.011Z,101132.00
2019-02-26T19:10:20.988Z,101130.00
2019-02-26T19:12:49.339Z,101130.00
2019-02-26T19:15:18.395Z,101130.00
2019-02-26T19:17:48.984Z,101124.00
2019-02-26T19:20:19.988Z,101119.00
2019-02-26T19:22:48.192Z,101119.00
2019-02-26T19:25:16.516Z,101116.00
2019-02-26T19:27:44.708Z,101110.00
2019-02-26T19:30:15.342Z,101111.00
2019-02-26T19:32:47.541Z,101104.00
2019-02-26T19:35:14.005Z,101110.00
2019-02-26T19:37:42.302Z,101102.00
2019-02-26T19:40:13.819Z,101107.00
2019-02-26T19:42:42.630Z,101118.00
2019-02-26T19:45:11.928Z,101101.00
2019-02-26T19:47:40.223Z,101100.00
2019-02-26T19:50:11.938Z,101103.00
2019-02-26T19:52:40.294Z,101096.00
2019-02-26T19:55:16.265Z,101094.00
2019-02-26T19:57:44.791Z,101105.00
2019-02-26T20:00:13.436Z,101092.00
2019-02-26T20:02:43.154Z,101096.00
2019-02-26T20:05:12.232Z,101089.00
2019-02-26T20:07:40.421Z,101102.00
2019-02-26T20:10:10.248Z,101095.00
2019-02-26T20:12:38.522Z,101091.00
2019-02-26T20:15:07.772Z,101105.00
2019-02-26T20:17:36.074Z,101108.00
2019-02-26T20:20:05.595Z,101109.00
2019-02-26T20:22:33.833Z,101112.00
2019-02-26T20:25:02.028Z,101105.00
2019-02-26T20:27:30.377Z,101111.00
2019-02-26T20:29:58.558Z,101117.00
2019-02-26T20:32:30.919Z,101110.00
2019-02-26T20:34:56.960Z,101111.00
2019-02-26T20:37:25.201Z,101116.00
2019-02-26T20:39:53.406Z,101122.00
2019-02-26T20:42:21.652Z,101120.00
2019-02-26T20:44:58.657Z,101120.00
2019-02-26T20:47:19.913Z,101129.00
2019-02-26T20:49:48.204Z,101130.00
2019-02-26T20:52:16.517Z,101136.00
2019-02-26T20:54:45.118Z,101136.00
2019-02-26T20:57:13.560Z,101149.00
2019-02-26T20:59:41.810Z,101143.00
2019-02-26T21:02:10.142Z,101141.00
2019-02-26T21:04:38.355Z,101139.00
2019-02-26T21:07:06.977Z,101151.00
2019-02-26T21:09:37.843Z,101152.00
2019-02-26T21:12:06.579Z,101149.00
2019-02-26T21:14:34.826Z,101146.00
2019-02-26T21:17:03.008Z,101144.00
2019-02-26T21:19:35.532Z,101145.00
2019-02-26T21:22:01.606Z,101143.00
2019-02-26T21:24:31.896Z,101153.00
2019-02-26T21:26:59.893Z,101156.00
2019-02-26T21:29:28.376Z,101161.00
2019-02-26T21:31:56.957Z,101144.00
2019-02-26T21:34:25.206Z,101137.00
2019-02-26T21:36:53.627Z,101143.00
2019-02-26T21:39:21.799Z,101148.00
2019-02-26T21:41:50.088Z,101150.00
2019-02-26T21:44:18.288Z,101148.00
2019-02-26T21:46:46.563Z,101151.00
2019-02-26T21:49:14.850Z,101148.00
2019-02-26T21:51:43.117Z,101157.00
2019-02-26T21:54:11.357Z,101155.00
2019-02-26T21:56:39.619Z,101158.00
2019-02-26T21:59:07.852Z,101152.00
2019-02-26T22:01:36.220Z,101151.00
2019-02-26T22:04:04.468Z,101143.00
2019-02-26T22:06:32.625Z,101151.00
2019-02-26T22:09:01.132Z,101147.00
2019-02-26T22:11:29.395Z,101150.00
2019-02-26T22:13:59.961Z,101130.00
2019-02-26T22:16:28.049Z,101134.00
2019-02-26T22:18:56.284Z,101136.00
2019-02-26T22:21:24.486Z,101127.00
2019-02-26T22:23:52.735Z,101137.00
2019-02-26T22:26:20.944Z,101135.00
2019-02-26T22:28:49.371Z,101145.00
2019-02-26T22:31:17.557Z,101140.00
2019-02-26T22:33:46.464Z,101137.00
2019-02-26T22:36:14.854Z,101135.00
2019-02-26T22:38:43.101Z,101145.00
2019-02-26T22:41:11.346Z,101141.00
2019-02-26T22:43:39.579Z,101146.00
2019-02-26T22:46:07.847Z,101153.00
2019-02-26T22:48:36.055Z,101149.00
2019-02-26T22:51:04.314Z,101144.00
2019-02-26T22:53:36.360Z,101147.00
2019-02-26T22:56:02.634Z,101158.00
2019-02-26T22:58:31.052Z,101149.00
2019-02-26T23:01:30.579Z,101137.00
2019-02-26T23:03:55.312Z,101144.00
2019-02-26T23:06:23.589Z,101152.00
2019-02-26T23:08:51.895Z,101147.00
2019-02-26T23:11:20.462Z,101140.00
2019-02-26T23:13:49.128Z,101145.00
2019-02-26T23:16:18.479Z,101149.00
2019-02-26T23:18:47.518Z,101135.00
2019-02-26T23:21:16.362Z,101141.00
2019-02-26T23:23:45.425Z,101138.00
2019-02-26T23:26:13.781Z,101143.00
2019-02-26T23:28:42.166Z,101149.00
2019-02-26T23:31:11.045Z,101142.00
2019-02-26T23:33:40.857Z,101151.00
2019-02-26T23:36:10.647Z,101150.00
2019-02-26T23:38:39.197Z,101150.00
2019-02-26T23:41:07.496Z,101154.00
2019-02-26T23:43:35.777Z,101143.00
2019-02-26T23:46:05.649Z,101148.00
2019-02-26T23:48:33.913Z,101146.00
2019-02-26T23:51:02.213Z,101153.00
2019-02-26T23:53:33.934Z,101153.00
2019-02-26T23:56:00.551Z,101149.00
2019-02-26T23:58:31.056Z,101164.00
